Time;durP1;ratioP1;P1;durP2;ratioP2;P2;SDS_P1;SDS_P2;PMS_P1;PMS_P2;Temp;Humidity;BMP_temperature;BMP_pressure;BME280_temperature;BME280_humidity;BME280_pressure;Samples;Min_cycle;Max_cycle;Signal;HPM_P1;HPM_P2
2023/12/11 00:01:03;;;;;;;45.22;9.07;;;12.80;99.90;;;12.37;100.00;100544.06;4150813;28;20029;-76
2023/12/11 00:03:04;;;;;;;50.53;7.60;;;12.90;99.90;;;12.38;100.00;100529.84;4151759;28;20389;-76
2023/12/11 00:05:05;;;;;;;38.13;7.40;;;12.90;99.90;;;12.39;100.00;100520.09;4150894;28;20026;-76
2023/12/11 00:07:06;;;;;;;48.80;8.40;;;12.90;99.90;;;12.41;100.00;100518.91;4150673;28;20073;-77
2023/12/11 00:09:07;;;;;;;33.92;5.80;;;13.00;99.90;;;12.47;100.00;100527.97;4151959;28;20030;-76
2023/12/11 00:11:09;;;;;;;42.17;7.82;;;13.00;99.90;;;12.61;100.00;100551.03;4150837;28;20030;-77
2023/12/11 00:13:10;;;;;;;51.85;7.97;;;13.10;99.90;;;12.62;100.00;100556.19;4150691;28;20088;-77
2023/12/11 00:15:10;;;;;;;52.78;6.90;;;13.10;99.90;;;12.57;100.00;100536.53;4151970;28;20087;-77
2023/12/11 00:17:11;;;;;;;50.40;8.68;;;13.10;99.90;;;12.59;100.00;100527.41;4151471;28;20054;-77
2023/12/11 00:19:12;;;;;;;37.95;8.50;;;13.20;99.90;;;12.67;100.00;100529.19;4150743;28;20469;-76
2023/12/11 00:21:13;;;;;;;45.03;6.72;;;13.20;99.90;;;12.65;100.00;100515.31;4150715;28;20022;-76
2023/12/11 00:23:14;;;;;;;38.88;7.18;;;13.20;99.90;;;12.64;100.00;100505.72;4150636;28;20160;-77
2023/12/11 00:25:15;;;;;;;58.05;7.68;;;13.20;99.90;;;12.60;100.00;100492.00;4166918;28;20030;-77
2023/12/11 00:27:16;;;;;;;47.45;7.32;;;13.20;99.90;;;12.68;100.00;100507.03;4150266;28;20029;-76
2023/12/11 00:29:16;;;;;;;33.72;6.95;;;13.20;99.90;;;12.68;100.00;100501.72;4153290;28;20053;-77
2023/12/11 00:31:17;;;;;;;33.15;5.43;;;13.20;99.90;;;12.67;100.00;100505.38;4153452;28;20444;-76
2023/12/11 00:33:18;;;;;;;42.63;6.60;;;13.20;99.90;;;12.64;100.00;100492.47;4153487;28;20084;-76
2023/12/11 00:35:19;;;;;;;45.40;7.85;;;13.20;99.90;;;12.70;100.00;100505.84;4154636;28;20042;-77
2023/12/11 00:37:20;;;;;;;37.17;6.65;;;13.20;99.90;;;12.71;100.00;100504.84;4154559;28;20490;-76
2023/12/11 00:39:21;;;;;;;31.83;6.20;;;13.30;99.90;;;12.69;100.00;100506.03;4169505;28;20037;-76
2023/12/11 00:41:22;;;;;;;36.25;6.43;;;13.30;99.90;;;12.71;100.00;100501.38;4153242;28;20079;-77
2023/12/11 00:43:22;;;;;;;41.28;6.60;;;13.30;99.90;;;12.71;100.00;100491.63;4137242;28;20093;-77
2023/12/11 00:45:23;;;;;;;31.75;5.63;;;13.30;99.90;;;12.75;100.00;100492.09;4153370;28;20117;-77
2023/12/11 00:47:24;;;;;;;46.45;7.18;;;13.30;99.90;;;12.77;100.00;100492.75;4153066;28;20022;-77
2023/12/11 00:49:25;;;;;;;35.92;5.78;;;13.30;99.90;;;12.79;100.00;100488.09;4153303;28;20021;-77
2023/12/11 00:51:26;;;;;;;40.28;6.85;;;13.30;99.90;;;12.80;100.00;100486.25;4168890;28;20025;-76
2023/12/11 00:53:27;;;;;;;41.13;6.60;;;13.30;99.90;;;12.80;100.00;100476.50;4153094;28;20484;-76
2023/12/11 00:55:28;;;;;;;35.83;6.65;;;13.40;99.90;;;12.82;100.00;100478.97;4153166;28;20037;-77
2023/12/11 00:57:29;;;;;;;27.55;4.95;;;13.40;99.90;;;12.80;100.00;100476.50;4152904;28;20030;-77
2023/12/11 00:59:29;;;;;;;37.08;9.00;;;13.40;99.90;;;12.75;100.00;100489.44;4153005;28;20030;-77
2023/12/11 01:01:30;;;;;;;35.42;7.53;;;13.40;99.90;;;12.78;100.00;100497.84;4154255;28;20056;-76
2023/12/11 01:03:31;;;;;;;40.78;6.85;;;13.40;99.90;;;12.75;100.00;100500.84;4152754;28;20084;-76
2023/12/11 01:05:32;;;;;;;33.30;5.78;;;13.40;99.90;;;12.82;100.00;100511.56;4153998;28;20017;-76
2023/12/11 01:07:33;;;;;;;29.42;4.88;;;13.40;99.90;;;12.83;100.00;100496.50;4150195;28;20077;-77
2023/12/11 01:09:33;;;;;;;34.70;5.90;;;13.40;99.90;;;12.80;100.00;100481.78;4152689;28;20472;-77
2023/12/11 01:11:34;;;;;;;33.00;8.23;;;13.40;99.90;;;12.83;100.00;100475.31;4120366;28;20030;-77
2023/12/11 01:13:35;;;;;;;29.00;9.50;;;13.40;99.90;;;12.84;100.00;100491.03;4152788;28;20528;-77
2023/12/11 01:15:36;;;;;;;33.10;4.85;;;13.40;99.90;;;12.82;100.00;100478.97;4153928;28;20038;-77
2023/12/11 01:17:38;;;;;;;21.17;4.50;;;13.40;99.90;;;12.77;100.00;100467.09;4152459;28;20082;-77
2023/12/11 01:19:41;;;;;;;16.70;3.67;;;13.40;99.90;;;12.76;100.00;100468.09;4153996;28;20034;-77
2023/12/11 01:21:41;;;;;;;22.02;4.15;;;13.40;99.90;;;12.73;100.00;100475.56;4158438;28;20048;-77
2023/12/11 01:23:42;;;;;;;27.83;5.97;;;13.40;99.90;;;12.81;100.00;100485.28;4152895;28;20018;-77
2023/12/11 01:25:43;;;;;;;23.55;4.68;;;13.40;99.90;;;12.73;100.00;100465.78;4152723;28;20029;-77
2023/12/11 01:27:44;;;;;;;25.35;4.70;;;13.40;99.90;;;12.77;100.00;100460.97;4152505;28;20072;-77
2023/12/11 01:29:45;;;;;;;22.65;7.72;;;13.40;99.90;;;12.76;100.00;100446.91;4152299;28;20037;-77
2023/12/11 01:31:46;;;;;;;22.40;8.23;;;13.30;99.90;;;12.82;100.00;100455.97;4152652;28;20033;-77
2023/12/11 01:33:47;;;;;;;20.15;7.75;;;13.30;99.90;;;12.75;100.00;100457.69;4152482;28;20037;-77
2023/12/11 01:35:47;;;;;;;16.58;4.82;;;13.30;99.90;;;12.71;100.00;100433.41;4147677;28;20034;-77
2023/12/11 01:37:48;;;;;;;12.15;3.60;;;13.40;99.90;;;12.76;100.00;100454.03;4149584;28;20032;-77
2023/12/11 01:39:49;;;;;;;14.85;3.53;;;13.30;99.90;;;12.76;100.00;100454.84;4136081;28;20022;-77
2023/12/11 01:41:50;;;;;;;16.55;4.60;;;13.30;99.90;;;12.77;100.00;100450.38;4152288;28;20448;-77
2023/12/11 01:43:55;;;;;;;15.20;4.72;;;13.30;99.90;;;12.70;100.00;100438.84;4152540;28;20037;-77
2023/12/11 01:46:13;;;;;;;14.30;3.45;;;13.30;99.90;;;12.71;100.00;100440.50;4146133;28;20025;-77
2023/12/11 01:48:14;;;;;;;12.20;3.35;;;13.30;99.90;;;12.73;100.00;100470.25;4152266;28;20036;-77
2023/12/11 01:50:15;;;;;;;8.38;2.25;;;13.30;99.90;;;12.83;100.00;100494.69;4152371;28;20022;-77
2023/12/11 01:52:16;;;;;;;18.30;3.85;;;13.30;99.90;;;12.76;100.00;100481.31;4151833;28;20045;-77
2023/12/11 01:54:19;;;;;;;14.93;2.47;;;13.30;99.90;;;12.75;100.00;100462.97;4135763;28;20022;-77
2023/12/11 01:56:21;;;;;;;5.68;1.48;;;13.30;99.90;;;12.68;100.00;100446.16;4130002;28;20030;-77
2023/12/11 01:58:24;;;;;;;8.20;1.38;;;13.30;99.90;;;12.63;100.00;100459.09;4153160;28;20018;-77
2023/12/11 02:00:25;;;;;;;6.38;1.70;;;13.30;99.90;;;12.53;100.00;100446.09;4152017;28;20148;-77
2023/12/11 02:02:29;;;;;;;8.77;1.15;;;13.20;99.90;;;12.50;100.00;100448.25;4153317;28;20033;-77
2023/12/11 02:04:31;;;;;;;9.23;1.50;;;13.20;99.90;;;12.47;100.00;100453.91;4152409;28;20113;-77
2023/12/11 02:06:31;;;;;;;8.05;1.80;;;13.10;99.90;;;12.42;100.00;100437.75;4146885;28;20039;-77
2023/12/11 02:08:33;;;;;;;10.77;2.63;;;13.10;99.90;;;12.40;100.00;100429.97;4152045;28;20022;-77
2023/12/11 02:10:34;;;;;;;12.77;1.80;;;13.00;99.90;;;12.33;100.00;100426.41;4153293;28;20425;-77
2023/12/11 02:12:35;;;;;;;9.18;1.33;;;13.00;99.90;;;12.36;100.00;100430.50;4153147;28;20092;-77
2023/12/11 02:14:36;;;;;;;6.38;1.33;;;13.00;99.90;;;12.34;100.00;100437.78;4151887;28;20026;-77
2023/12/11 02:16:37;;;;;;;7.68;1.40;;;13.00;99.90;;;12.36;100.00;100435.78;4140997;28;20472;-77
2023/12/11 02:18:38;;;;;;;6.47;1.30;;;13.00;99.90;;;12.44;100.00;100444.50;4152549;28;20125;-77
2023/12/11 02:20:41;;;;;;;6.57;1.60;;;13.00;99.90;;;12.44;100.00;100433.09;4152077;28;20037;-77
2023/12/11 02:22:42;;;;;;;8.52;2.03;;;13.00;99.90;;;12.45;100.00;100438.22;4151784;28;20018;-77
2023/12/11 02:24:49;;;;;;;6.50;1.80;;;13.00;99.90;;;12.46;100.00;100437.19;4151882;28;20498;-77
2023/12/11 02:26:51;;;;;;;6.30;1.77;;;13.00;99.90;;;12.45;100.00;100440.03;4141362;28;20029;-77
2023/12/11 02:28:51;;;;;;;9.38;1.80;;;13.00;99.90;;;12.36;100.00;100436.63;4151844;28;20041;-77
2023/12/11 02:30:52;;;;;;;11.55;1.80;;;13.00;99.90;;;12.43;100.00;100448.13;4152735;28;20021;-77
2023/12/11 02:32:53;;;;;;;3.35;1.38;;;13.00;99.90;;;12.38;100.00;100424.03;4151213;28;20060;-77
2023/12/11 02:34:54;;;;;;;5.68;1.60;;;13.00;99.90;;;12.34;100.00;100435.13;4152691;28;20030;-77
2023/12/11 02:36:55;;;;;;;5.10;1.20;;;12.90;99.90;;;12.41;100.00;100455.44;4143205;28;20034;-77
2023/12/11 02:38:55;;;;;;;10.40;1.70;;;13.00;99.90;;;12.34;100.00;100453.63;4168118;28;20040;-77
2023/12/11 02:40:56;;;;;;;10.60;1.65;;;12.90;99.90;;;12.38;100.00;100449.66;4138694;28;20022;-77
2023/12/11 02:42:57;;;;;;;7.43;1.48;;;12.90;99.90;;;12.33;100.00;100452.84;4151490;28;20033;-77
2023/12/11 02:44:58;;;;;;;7.05;1.23;;;12.90;99.90;;;12.35;100.00;100452.66;4152260;28;20025;-77
2023/12/11 02:46:59;;;;;;;6.20;1.50;;;12.90;99.90;;;12.29;100.00;100443.59;4151091;28;20077;-77
2023/12/11 02:49:00;;;;;;;2.80;1.00;;;12.90;99.90;;;12.27;100.00;100420.97;4151203;28;20374;-77
2023/12/11 02:51:01;;;;;;;4.00;1.25;;;12.90;99.90;;;12.29;100.00;100433.03;4151763;28;20175;-77
2023/12/11 02:53:03;;;;;;;5.32;1.05;;;12.80;99.90;;;12.27;100.00;100428.91;4151110;28;20025;-77
2023/12/11 02:55:05;;;;;;;7.32;1.83;;;12.80;99.90;;;12.22;100.00;100421.47;4143879;28;20034;-77
2023/12/11 02:57:06;;;;;;;5.13;1.20;;;12.80;99.90;;;12.25;100.00;100433.53;4149425;28;20026;-76
2023/12/11 02:59:07;;;;;;;8.50;0.98;;;12.80;99.90;;;12.25;100.00;100438.81;4151170;28;20025;-77
2023/12/11 03:01:08;;;;;;;8.48;1.20;;;12.80;99.90;;;12.25;100.00;100433.53;4151607;28;20033;-77
2023/12/11 03:03:09;;;;;;;6.78;1.30;;;12.80;99.90;;;12.27;100.00;100437.66;4150940;28;20053;-77
2023/12/11 03:05:09;;;;;;;9.02;1.48;;;12.80;99.90;;;12.24;100.00;100439.84;4151434;28;20029;-77
2023/12/11 03:07:10;;;;;;;6.40;1.30;;;12.80;99.90;;;12.21;100.00;100439.16;4151066;28;20524;-77
2023/12/11 03:09:11;;;;;;;9.20;1.80;;;12.80;99.90;;;12.22;100.00;100432.06;4135048;28;20037;-77
2023/12/11 03:11:12;;;;;;;5.65;0.82;;;12.80;99.90;;;12.24;100.00;100439.84;4152698;28;20052;-77
2023/12/11 03:13:13;;;;;;;3.97;1.05;;;12.80;99.90;;;12.24;100.00;100442.47;4152355;28;20030;-77
2023/12/11 03:15:14;;;;;;;7.05;1.33;;;12.80;99.90;;;12.21;100.00;100447.09;4151171;28;20030;-77
2023/12/11 03:17:15;;;;;;;6.18;1.17;;;12.80;99.90;;;12.19;100.00;100451.75;4150754;28;20052;-77
2023/12/11 03:19:18;;;;;;;3.45;0.85;;;12.80;99.90;;;12.22;100.00;100442.63;4152263;28;20375;-77
2023/12/11 03:21:19;;;;;;;8.65;1.45;;;12.80;99.90;;;12.19;100.00;100449.09;4135027;28;20097;-77
2023/12/11 03:23:20;;;;;;;8.10;1.33;;;12.80;99.90;;;12.20;100.00;100453.41;4150976;28;20030;-77
2023/12/11 03:25:22;;;;;;;12.18;1.67;;;12.80;99.90;;;12.17;100.00;100437.88;4151808;28;20037;-77
2023/12/11 03:27:22;;;;;;;5.30;1.13;;;12.80;99.90;;;12.18;100.00;100436.06;4142343;28;20029;-77
2023/12/11 03:29:23;;;;;;;6.20;1.05;;;12.80;99.90;;;12.16;100.00;100438.03;4134831;28;20494;-77
2023/12/11 03:31:24;;;;;;;7.43;1.25;;;12.80;99.90;;;12.23;100.00;100452.22;4150708;28;20064;-77
2023/12/11 03:33:25;;;;;;;10.30;1.88;;;12.80;99.90;;;12.21;100.00;100443.66;4151031;28;20066;-77
2023/12/11 03:35:26;;;;;;;9.60;1.42;;;12.80;99.90;;;12.13;100.00;100435.75;4150180;28;20034;-77
2023/12/11 03:37:27;;;;;;;5.40;1.23;;;12.70;99.90;;;12.12;100.00;100444.69;4146383;28;20022;-77
2023/12/11 03:39:27;;;;;;;5.07;1.40;;;12.70;99.90;;;12.13;100.00;100454.25;4152008;28;20044;-77
2023/12/11 03:41:28;;;;;;;7.18;1.40;;;12.70;99.90;;;12.14;100.00;100454.09;4152200;28;20033;-77
2023/12/11 03:43:29;;;;;;;4.40;1.33;;;12.70;99.90;;;12.15;100.00;100458.41;4150774;28;20101;-77
2023/12/11 03:45:30;;;;;;;5.82;1.50;;;12.70;99.90;;;12.10;100.00;100447.50;4149601;28;20021;-77
2023/12/11 03:47:31;;;;;;;9.07;1.80;;;12.70;99.90;;;12.17;100.00;100461.69;4148860;28;20109;-77
2023/12/11 03:49:32;;;;;;;5.45;1.17;;;12.70;99.90;;;12.14;100.00;100458.56;4150732;28;20547;-77
2023/12/11 03:51:32;;;;;;;6.32;1.00;;;12.70;99.90;;;12.11;100.00;100435.94;4150049;28;20473;-77
2023/12/11 03:53:33;;;;;;;10.52;2.22;;;12.70;99.90;;;12.08;100.00;100438.91;4150780;28;20038;-77
2023/12/11 03:55:34;;;;;;;10.00;2.22;;;12.70;99.90;;;12.14;100.00;100443.53;4148803;28;20465;-77
2023/12/11 03:57:35;;;;;;;8.38;1.30;;;12.70;99.90;;;12.09;100.00;100439.75;4150686;28;20026;-77
2023/12/11 03:59:36;;;;;;;4.45;1.38;;;12.70;99.90;;;12.10;100.00;100438.72;4150590;28;20030;-77
2023/12/11 04:01:38;;;;;;;7.10;1.27;;;12.70;99.90;;;12.13;100.00;100443.69;4153274;28;20049;-76
2023/12/11 04:03:38;;;;;;;4.10;1.20;;;12.70;99.90;;;12.10;100.00;100467.81;4154902;28;20025;-77
2023/12/11 04:05:39;;;;;;;5.57;1.10;;;12.70;99.90;;;12.03;100.00;100446.56;4137690;28;20034;-76
2023/12/11 04:07:40;;;;;;;8.07;1.45;;;12.60;99.90;;;12.01;100.00;100437.94;4155116;28;20026;-77
2023/12/11 04:09:41;;;;;;;5.00;1.00;;;12.60;99.90;;;12.08;100.00;100452.13;4152718;28;20025;-77
2023/12/11 04:11:44;;;;;;;10.27;1.77;;;12.60;99.90;;;12.06;100.00;100446.22;4151487;28;20026;-76
2023/12/11 04:13:45;;;;;;;5.95;1.40;;;12.60;99.90;;;12.04;100.00;100464.03;4153748;28;20101;-76
2023/12/11 04:15:46;;;;;;;8.20;1.20;;;12.60;99.90;;;11.98;100.00;100459.44;4153686;28;20029;-77
2023/12/11 04:17:47;;;;;;;5.15;1.13;;;12.60;99.90;;;11.95;100.00;100457.16;4137193;28;20026;-77
2023/12/11 04:19:48;;;;;;;6.05;0.93;;;12.50;99.90;;;11.96;100.00;100468.53;4153636;28;20121;-77
2023/12/11 04:21:49;;;;;;;7.25;1.08;;;12.50;99.90;;;11.91;100.00;100466.44;4153538;28;20450;-76
2023/12/11 04:23:50;;;;;;;5.50;1.52;;;12.50;99.90;;;11.92;100.00;100475.16;4153846;28;20026;-76
2023/12/11 04:25:57;;;;;;;6.75;1.42;;;12.50;99.90;;;11.88;100.00;100477.34;4154873;28;20018;-76
2023/12/11 04:27:57;;;;;;;8.55;1.48;;;12.40;99.90;;;11.81;100.00;100471.09;4154788;28;20049;-77
2023/12/11 04:29:58;;;;;;;13.10;2.08;;;12.40;99.90;;;11.74;100.00;100477.22;4153492;28;20025;-77
2023/12/11 04:31:59;;;;;;;9.00;1.80;;;12.30;99.90;;;11.73;100.00;100488.78;4136945;28;20041;-76
2023/12/11 04:34:00;;;;;;;6.85;1.23;;;12.30;99.90;;;11.63;100.00;100470.44;4137465;28;20026;-77
2023/12/11 04:36:02;;;;;;;6.85;2.00;;;12.30;99.90;;;11.68;100.00;100493.72;4153488;28;20026;-77
2023/12/11 04:38:03;;;;;;;10.27;1.50;;;12.20;99.90;;;11.64;100.00;100495.88;4136965;28;20030;-77
2023/12/11 04:40:05;;;;;;;9.10;1.45;;;12.20;99.90;;;11.61;100.00;100494.41;4153495;28;20038;-77
2023/12/11 04:42:06;;;;;;;10.55;1.90;;;12.20;99.90;;;11.57;100.00;100484.31;4153478;28;20021;-77
2023/12/11 04:44:07;;;;;;;8.77;2.38;;;12.20;99.90;;;11.63;100.00;100495.06;4154486;28;20022;-77
2023/12/11 04:46:07;;;;;;;13.15;1.83;;;12.20;99.90;;;11.68;100.00;100497.16;4153034;28;20038;-77
2023/12/11 04:48:08;;;;;;;12.05;2.92;;;12.20;99.90;;;11.67;100.00;100492.91;4148366;28;20076;-77
2023/12/11 04:50:09;;;;;;;10.68;2.90;;;12.20;99.90;;;11.73;100.00;100512.56;4153338;28;20084;-77
2023/12/11 04:52:10;;;;;;;10.32;3.28;;;12.30;99.90;;;11.71;100.00;100498.72;4152585;28;20022;-76
2023/12/11 04:54:11;;;;;;;9.63;2.55;;;12.30;99.90;;;11.68;100.00;100491.88;4154293;28;20029;-76
2023/12/11 04:56:12;;;;;;;11.88;2.60;;;12.30;99.90;;;11.72;100.00;100500.34;4154622;28;20026;-76
2023/12/11 04:58:13;;;;;;;12.75;2.55;;;12.30;99.90;;;11.75;100.00;100500.00;4152985;28;20022;-77
2023/12/11 05:00:15;;;;;;;11.77;2.40;;;12.30;99.90;;;11.77;100.00;100506.75;4169377;28;20017;-77
2023/12/11 05:02:16;;;;;;;10.45;2.97;;;12.30;99.90;;;11.77;100.00;100516.53;4152684;28;20112;-76
2023/12/11 05:04:17;;;;;;;8.35;1.80;;;12.30;99.90;;;11.79;100.00;100504.78;4153062;28;20461;-76
2023/12/11 05:06:18;;;;;;;9.85;1.60;;;12.30;99.90;;;11.79;100.00;100498.69;4154156;28;20056;-76
2023/12/11 05:08:19;;;;;;;14.45;2.00;;;12.30;99.90;;;11.79;100.00;100506.59;4136816;28;20030;-76
2023/12/11 05:10:20;;;;;;;10.18;1.73;;;12.30;99.90;;;11.79;100.00;100504.78;4153967;28;20037;-76
2023/12/11 05:12:20;;;;;;;11.52;2.30;;;12.30;99.90;;;11.75;100.00;100494.72;4153766;28;20390;-76
2023/12/11 05:14:21;;;;;;;11.45;1.50;;;12.30;99.90;;;11.75;100.00;100495.53;4152907;28;20112;-76
2023/12/11 05:16:22;;;;;;;10.43;1.83;;;12.30;99.90;;;11.76;100.00;100499.84;4153834;28;20057;-76
2023/12/11 05:18:23;;;;;;;17.73;2.33;;;12.40;99.90;;;11.78;100.00;100500.50;4152384;28;20026;-76
2023/12/11 05:20:24;;;;;;;21.88;2.95;;;12.40;99.90;;;11.79;100.00;100523.28;4136775;28;20018;-77
2023/12/11 05:22:25;;;;;;;17.02;3.33;;;12.40;99.90;;;11.72;100.00;100509.09;4154066;28;20536;-76
2023/12/11 05:24:26;;;;;;;18.55;2.78;;;12.30;99.90;;;11.77;100.00;100516.53;4152712;28;20048;-76
2023/12/11 05:26:26;;;;;;;14.18;2.22;;;12.30;99.90;;;11.79;100.00;100525.09;4153933;28;20030;-76
2023/12/11 05:28:27;;;;;;;17.90;2.53;;;12.30;99.90;;;11.76;100.00;100536.00;4153965;28;20409;-76
2023/12/11 05:30:28;;;;;;;13.15;2.30;;;12.30;99.90;;;11.80;100.00;100530.22;4152462;28;20115;-76
2023/12/11 05:32:29;;;;;;;15.80;2.50;;;12.40;99.90;;;11.78;100.00;100523.44;4153564;28;20085;-76
2023/12/11 05:34:30;;;;;;;10.20;2.03;;;12.40;99.90;;;11.80;100.00;100529.41;4152622;28;20513;-77
2023/12/11 05:36:33;;;;;;;13.10;2.50;;;12.30;99.90;;;11.81;100.00;100541.59;4136495;28;20401;-77
2023/12/11 05:38:34;;;;;;;12.73;2.28;;;12.40;99.90;;;11.84;100.00;100551.84;4153648;28;20021;-77
2023/12/11 05:40:35;;;;;;;19.10;2.78;;;12.40;99.90;;;11.83;100.00;100558.94;4153631;28;20026;-77
2023/12/11 05:42:35;;;;;;;14.25;2.47;;;12.40;99.90;;;11.79;100.00;100552.38;4152797;28;20026;-77
2023/12/11 05:44:36;;;;;;;9.15;2.00;;;12.40;99.90;;;11.87;100.00;100565.56;4152341;28;20022;-77
2023/12/11 05:46:37;;;;;;;15.70;2.38;;;12.40;99.90;;;11.86;100.00;100571.00;4152647;28;20045;-77
2023/12/11 05:48:38;;;;;;;14.23;2.85;;;12.40;99.90;;;11.88;100.00;100561.94;4152107;28;20061;-77
2023/12/11 05:50:39;;;;;;;18.13;3.88;;;12.50;99.90;;;11.90;100.00;100565.22;4152192;28;20045;-77
2023/12/11 05:52:40;;;;;;;18.02;2.97;;;12.40;99.90;;;11.91;100.00;100572.16;4151503;28;20101;-76
2023/12/11 05:54:41;;;;;;;18.55;3.78;;;12.50;99.90;;;11.90;100.00;100567.03;4152310;28;20448;-76
2023/12/11 05:56:42;;;;;;;13.98;3.28;;;12.50;99.90;;;11.86;100.00;100568.34;4152277;28;20048;-77
2023/12/11 05:58:43;;;;;;;19.73;3.30;;;12.50;99.90;;;11.93;100.00;100580.75;4152263;28;20576;-77
2023/12/11 06:00:44;;;;;;;18.85;3.33;;;12.50;99.90;;;11.92;100.00;100579.06;4135663;28;20026;-77
2023/12/11 06:02:45;;;;;;;13.65;2.72;;;12.50;99.90;;;11.91;100.00;100566.03;4151992;28;20030;-77
2023/12/11 06:04:46;;;;;;;24.73;3.40;;;12.50;99.90;;;11.92;100.00;100565.84;4152077;28;20532;-76
2023/12/11 06:06:47;;;;;;;18.55;3.35;;;12.50;99.90;;;12.00;100.00;100584.38;4153288;28;20076;-77
2023/12/11 06:08:48;;;;;;;20.83;5.47;;;12.60;99.90;;;12.03;100.00;100596.41;4152122;28;20038;-77
2023/12/11 06:10:48;;;;;;;20.92;2.90;;;12.60;99.90;;;11.98;100.00;100594.25;4153220;28;20520;-76
2023/12/11 06:12:50;;;;;;;14.88;3.55;;;12.60;99.90;;;11.96;100.00;100593.63;4151918;28;20097;-76
2023/12/11 06:14:50;;;;;;;12.73;3.30;;;12.50;99.90;;;12.02;100.00;100602.69;4152090;28;20433;-77
2023/12/11 06:16:51;;;;;;;11.20;3.10;;;12.60;99.90;;;11.96;100.00;100595.44;4151183;28;20050;-76
2023/12/11 06:18:52;;;;;;;24.88;3.45;;;12.60;99.90;;;12.03;100.00;100610.47;4151893;28;20108;-77
2023/12/11 06:20:53;;;;;;;13.48;3.88;;;12.60;99.90;;;12.00;100.00;100605.50;4153032;28;20022;-77
2023/12/11 06:22:54;;;;;;;20.33;3.45;;;12.60;99.90;;;12.08;100.00;100612.59;4151943;28;20088;-77
2023/12/11 06:24:55;;;;;;;13.18;3.10;;;12.60;99.90;;;12.03;100.00;100597.25;4150971;28;20022;-77
2023/12/11 06:26:55;;;;;;;17.42;3.88;;;12.60;99.90;;;12.01;100.00;100599.22;4151937;28;20017;-77
2023/12/11 06:29:00;;;;;;;10.85;3.15;;;12.60;99.90;;;12.02;100.00;100606.16;4135307;28;20030;-77
2023/12/11 06:31:01;;;;;;;13.23;3.15;;;12.60;99.90;;;12.01;100.00;100606.31;4151577;28;20437;-77
2023/12/11 06:33:02;;;;;;;20.23;4.10;;;12.60;99.90;;;12.04;100.00;100604.16;4151385;28;20030;-77
2023/12/11 06:35:03;;;;;;;18.05;4.00;;;12.60;99.90;;;12.00;100.00;100607.34;4151717;28;20025;-76
2023/12/11 06:37:05;;;;;;;28.42;5.22;;;12.60;99.90;;;12.06;100.00;100615.41;4135518;28;20077;-76
2023/12/11 06:39:06;;;;;;;23.50;4.85;;;12.60;99.90;;;12.04;100.00;100614.75;4149483;28;20161;-77
2023/12/11 06:41:06;;;;;;;18.60;4.13;;;12.60;99.90;;;12.02;100.00;100607.97;4146319;28;20171;-77
2023/12/11 06:43:07;;;;;;;25.08;4.43;;;12.60;99.90;;;12.05;100.00;100612.94;4151868;28;20108;-76
2023/12/11 06:45:10;;;;;;;17.77;3.95;;;12.60;99.90;;;11.95;100.00;100599.88;4152708;28;20025;-77
2023/12/11 06:47:12;;;;;;;17.48;3.90;;;12.60;99.90;;;12.04;100.00;100619.19;4151346;28;20026;-76
2023/12/11 06:49:13;;;;;;;15.65;3.60;;;12.60;99.90;;;11.95;100.00;100614.91;4152585;28;20080;-76
2023/12/11 06:51:17;;;;;;;18.60;3.85;;;12.60;99.90;;;12.00;100.00;100629.31;4151621;28;20030;-77
2023/12/11 06:53:18;;;;;;;19.45;4.40;;;12.60;99.90;;;11.99;100.00;100632.09;4150603;28;20104;-76
2023/12/11 06:55:18;;;;;;;21.17;4.15;;;12.60;99.90;;;11.99;100.00;100624.19;4150972;28;20497;-76
2023/12/11 06:57:19;;;;;;;27.88;3.35;;;12.60;99.90;;;11.98;100.00;100623.34;4152410;28;20030;-76
2023/12/11 06:59:21;;;;;;;19.98;3.83;;;12.50;99.90;;;11.98;100.00;100622.50;4151336;28;20049;-77
2023/12/11 07:01:30;;;;;;;18.90;3.30;;;12.60;99.90;;;12.01;100.00;100628.28;4151436;28;20046;-77
2023/12/11 07:03:31;;;;;;;15.90;2.30;;;12.50;99.90;;;11.96;100.00;100608.66;4151027;28;20026;-76
2023/12/11 07:05:32;;;;;;;19.90;2.70;;;12.50;99.90;;;11.99;100.00;100619.72;4151177;28;20539;-76
2023/12/11 07:07:33;;;;;;;16.50;2.25;;;12.50;99.90;;;11.92;100.00;100609.97;4151320;28;20022;-76
2023/12/11 07:09:35;;;;;;;14.93;2.65;;;12.50;99.90;;;11.96;100.00;100609.47;4151482;28;20564;-76
2023/12/11 07:11:36;;;;;;;11.48;2.47;;;12.50;99.90;;;11.95;100.00;100612.28;4134979;28;20093;-77
2023/12/11 07:13:37;;;;;;;16.83;2.38;;;12.50;99.90;;;11.88;100.00;100612.16;4150901;28;20053;-77
2023/12/11 07:15:38;;;;;;;13.50;3.33;;;12.50;99.90;;;11.87;100.00;100615.78;4151031;28;20041;-76
2023/12/11 07:17:38;;;;;;;12.43;2.50;;;12.50;99.90;;;11.87;100.00;100613.13;4152192;28;20053;-76
2023/12/11 07:19:39;;;;;;;16.73;2.60;;;12.50;99.90;;;11.89;100.00;100616.41;4151134;28;20037;-77
2023/12/11 07:21:43;;;;;;;13.05;2.92;;;12.50;99.90;;;11.92;100.00;100623.19;4151228;28;20022;-77
2023/12/11 07:23:44;;;;;;;13.90;2.40;;;12.50;99.90;;;11.90;100.00;100618.06;4152402;28;20058;-76
2023/12/11 07:25:45;;;;;;;7.47;2.03;;;12.50;99.90;;;11.83;100.00;100609.16;4151207;28;20081;-76
2023/12/11 07:27:45;;;;;;;18.83;3.10;;;12.40;99.90;;;11.85;100.00;100628.34;4152288;28;20037;-76
2023/12/11 07:29:46;;;;;;;19.85;3.20;;;12.40;99.90;;;11.84;100.00;100631.97;4150749;28;20053;-76
2023/12/11 07:31:47;;;;;;;11.57;3.00;;;12.40;99.90;;;11.86;100.00;100629.97;4134744;28;20069;-77
2023/12/11 07:33:48;;;;;;;14.10;2.75;;;12.40;99.90;;;11.81;100.00;100621.72;4152454;28;20030;-77
2023/12/11 07:35:49;;;;;;;13.80;3.05;;;12.40;99.90;;;11.84;100.00;100626.69;4152610;28;20030;-76
2023/12/11 07:37:50;;;;;;;21.23;4.03;;;12.40;99.90;;;11.85;100.00;100628.34;4154265;28;20026;-77
2023/12/11 07:39:51;;;;;;;13.85;3.65;;;12.40;99.90;;;11.81;100.00;100621.72;4153758;28;20026;-77
2023/12/11 07:41:54;;;;;;;10.25;2.45;;;12.40;99.90;;;11.81;100.00;100610.31;4153823;28;20099;-77
2023/12/11 07:43:55;;;;;;;11.30;2.30;;;12.40;99.90;;;11.79;100.00;100613.16;4154215;28;20052;-76
2023/12/11 07:45:56;;;;;;;14.85;3.35;;;12.40;99.90;;;11.83;100.00;100619.72;4153633;28;20029;-76
2023/12/11 07:47:57;;;;;;;14.40;4.00;;;12.40;99.90;;;11.82;100.00;100615.44;4151150;28;20092;-76
2023/12/11 07:49:58;;;;;;;15.90;3.35;;;12.40;99.90;;;11.83;100.00;100619.72;4155042;28;20091;-76
2023/12/11 07:52:01;;;;;;;16.40;3.35;;;12.40;99.90;;;11.71;100.00;100613.13;4154992;28;20101;-76
2023/12/11 07:54:02;;;;;;;14.65;3.45;;;12.40;99.90;;;11.75;100.00;100613.63;4153840;28;20390;-77
2023/12/11 07:56:04;;;;;;;17.20;3.88;;;12.30;99.90;;;11.73;100.00;100616.44;4153768;28;20088;-76
2023/12/11 07:58:05;;;;;;;14.05;3.88;;;12.30;99.90;;;11.69;100.00;100607.16;4154812;28;20036;-76
2023/12/11 08:00:07;;;;;;;16.98;4.72;;;12.30;99.90;;;11.71;100.00;100615.78;4137283;28;20026;-77
2023/12/11 08:02:08;;;;;;;20.17;4.45;;;12.30;99.90;;;11.66;100.00;100607.50;4154240;28;20030;-77
2023/12/11 08:04:09;;;;;;;11.27;3.60;;;12.30;99.90;;;11.67;100.00;100617.09;4125225;28;20014;-76
2023/12/11 08:06:10;;;;;;;17.83;4.30;;;12.30;99.90;;;11.64;100.00;100620.06;4155170;28;20026;-76
2023/12/11 08:08:12;;;;;;;14.95;5.68;;;12.20;99.90;;;11.66;100.00;100618.06;4151889;28;20029;-77
2023/12/11 08:10:13;;;;;;;15.52;6.55;;;12.20;99.90;;;11.66;100.00;100618.91;4135005;28;20537;-76
2023/12/11 08:12:14;;;;;;;12.55;3.35;;;12.20;99.90;;;11.64;100.00;100614.78;4149108;28;20060;-77
2023/12/11 08:14:16;;;;;;;13.40;3.47;;;12.20;99.90;;;11.69;100.00;100620.38;4154023;28;20038;-76
2023/12/11 08:16:17;;;;;;;15.93;4.10;;;12.20;99.90;;;11.70;100.00;100624.72;4153774;28;20414;-77